NJE121W ESSB-LSZB
Flight info
| Callsign | NJE121W |
|---|---|
| Flight time | 2h 5m |
| Altitude | 41500 |
| Route | NOSLI N850 TRA DCT ROTOS |
| Aircraft | CL60/M-SBDE1E2E3FGHIJ1J4J5J7M3RWXYZ/LB1V1D1 |
Departure
| Time | 2026-05-08 13:50 |
|---|---|
| Airport | Stockholm-Bromma Airport (ESSB) |
Arrival
| Time | 2026-05-08 15:55 |
|---|---|
| Airport | Bern Airport (LSZB) |
| Time | Latitude | Longitude | Altitude | Speed | Heading |
|---|---|---|---|---|---|
| 2026-05-08 12:57 | 59.35387 | 17.95183 | 40 ft | 0 kts | 212° |
| 2026-05-08 13:44 | 59.35381 | 17.95175 | 40 ft | 2 kts | 212° |
| 2026-05-08 13:45 | 59.35360 | 17.95171 | 40 ft | 5 kts | 141° |
| 2026-05-08 13:45 | 59.35331 | 17.95239 | 40 ft | 7 kts | 130° |
| 2026-05-08 13:45 | 59.35279 | 17.95239 | 40 ft | 8 kts | 216° |
| 2026-05-08 13:45 | 59.35265 | 17.95164 | 39 ft | 9 kts | 308° |
| 2026-05-08 13:46 | 59.35302 | 17.95022 | 38 ft | 14 kts | 276° |
| 2026-05-08 13:46 | 59.35329 | 17.94822 | 35 ft | 16 kts | 305° |
| 2026-05-08 13:46 | 59.35404 | 17.94609 | 32 ft | 21 kts | 304° |
| 2026-05-08 13:46 | 59.35492 | 17.94357 | 30 ft | 19 kts | 304° |
| 2026-05-08 13:47 | 59.35556 | 17.94176 | 30 ft | 9 kts | 317° |
| 2026-05-08 13:47 | 59.35629 | 17.94129 | 31 ft | 12 kts | 340° |
| 2026-05-08 13:47 | 59.35694 | 17.93984 | 32 ft | 15 kts | 305° |
| 2026-05-08 13:47 | 59.35762 | 17.93795 | 34 ft | 18 kts | 305° |
| 2026-05-08 13:48 | 59.35836 | 17.93586 | 38 ft | 19 kts | 305° |
| 2026-05-08 13:48 | 59.35916 | 17.93364 | 43 ft | 19 kts | 305° |
| 2026-05-08 13:48 | 59.35980 | 17.93182 | 45 ft | 14 kts | 302° |
| 2026-05-08 13:48 | 59.35979 | 17.93017 | 47 ft | 13 kts | 254° |
| 2026-05-08 13:49 | 59.35953 | 17.92869 | 48 ft | 11 kts | 225° |
| 2026-05-08 13:49 | 59.35912 | 17.92835 | 48 ft | 3 kts | 130° |
| 2026-05-08 13:49 | 59.35898 | 17.92875 | 48 ft | 6 kts | 123° |
| 2026-05-08 13:49 | 59.35693 | 17.93453 | 40 ft | 106 kts | 126° |
| 2026-05-08 13:50 | 59.35109 | 17.95081 | 320 ft | 171 kts | 124° |
| 2026-05-08 13:50 | 59.34425 | 17.97010 | 1405 ft | 183 kts | 124° |
| 2026-05-08 13:50 | 59.33690 | 17.99066 | 2398 ft | 191 kts | 124° |
| 2026-05-08 13:50 | 59.32924 | 18.01211 | 3123 ft | 194 kts | 124° |
| 2026-05-08 13:51 | 59.32155 | 18.03381 | 3975 ft | 209 kts | 124° |
| 2026-05-08 13:51 | 59.31265 | 18.05872 | 4832 ft | 242 kts | 126° |
| 2026-05-08 13:51 | 59.29939 | 18.08019 | 5701 ft | 263 kts | 156° |
| 2026-05-08 13:51 | 59.28116 | 18.08369 | 6628 ft | 276 kts | 190° |
| 2026-05-08 13:52 | 59.26390 | 18.06727 | 7484 ft | 283 kts | 214° |
| 2026-05-08 13:52 | 59.24820 | 18.04470 | 8359 ft | 283 kts | 216° |
| 2026-05-08 13:52 | 59.23244 | 18.02216 | 9261 ft | 285 kts | 216° |
| 2026-05-08 13:52 | 59.21640 | 17.99960 | 10132 ft | 288 kts | 216° |
| 2026-05-08 13:53 | 59.20036 | 17.97620 | 11019 ft | 298 kts | 221° |
| 2026-05-08 13:53 | 59.18669 | 17.94350 | 11660 ft | 330 kts | 242° |
| 2026-05-08 13:53 | 59.18053 | 17.89983 | 12604 ft | 347 kts | 268° |
| 2026-05-08 13:53 | 59.18162 | 17.85252 | 13666 ft | 359 kts | 275° |
| 2026-05-08 13:54 | 59.18330 | 17.80405 | 14831 ft | 366 kts | 274° |
| 2026-05-08 13:54 | 59.18493 | 17.75480 | 16025 ft | 370 kts | 274° |
| 2026-05-08 13:54 | 59.18656 | 17.70489 | 17143 ft | 375 kts | 273° |
| 2026-05-08 13:54 | 59.18819 | 17.65415 | 18148 ft | 382 kts | 273° |
| 2026-05-08 13:55 | 59.18983 | 17.60241 | 19114 ft | 388 kts | 273° |
| 2026-05-08 13:55 | 59.19147 | 17.54976 | 20020 ft | 395 kts | 273° |
| 2026-05-08 13:55 | 59.19476 | 17.44188 | 21759 ft | 407 kts | 272° |
| 2026-05-08 13:56 | 59.19484 | 17.38679 | 22585 ft | 410 kts | 262° |
| 2026-05-08 13:56 | 59.18656 | 17.33404 | 23342 ft | 412 kts | 241° |
| 2026-05-08 13:56 | 59.16965 | 17.28924 | 24086 ft | 413 kts | 222° |
| 2026-05-08 13:56 | 59.14596 | 17.25809 | 24782 ft | 415 kts | 202° |
| 2026-05-08 13:57 | 59.11820 | 17.24389 | 25460 ft | 418 kts | 187° |
| 2026-05-08 13:57 | 59.08951 | 17.23421 | 26065 ft | 425 kts | 192° |
| 2026-05-08 13:57 | 59.06128 | 17.21669 | 26667 ft | 431 kts | 200° |
| 2026-05-08 13:57 | 59.03444 | 17.19063 | 27261 ft | 437 kts | 210° |
| 2026-05-08 13:58 | 59.00968 | 17.15626 | 27834 ft | 443 kts | 217° |
| 2026-05-08 13:58 | 58.98596 | 17.11810 | 28348 ft | 447 kts | 218° |
| 2026-05-08 13:58 | 58.96206 | 17.07963 | 28873 ft | 451 kts | 218° |
| 2026-05-08 13:58 | 58.93794 | 17.04093 | 29388 ft | 454 kts | 218° |
| 2026-05-08 13:59 | 58.91359 | 17.00194 | 29856 ft | 457 kts | 218° |
| 2026-05-08 13:59 | 58.88902 | 16.96264 | 30394 ft | 458 kts | 218° |
| 2026-05-08 13:59 | 58.86454 | 16.92356 | 31004 ft | 457 kts | 218° |
| 2026-05-08 13:59 | 58.84021 | 16.88481 | 31609 ft | 455 kts | 218° |
| 2026-05-08 14:00 | 58.81582 | 16.84602 | 32203 ft | 453 kts | 218° |
| 2026-05-08 14:00 | 58.79150 | 16.80744 | 32764 ft | 451 kts | 217° |
| 2026-05-08 14:00 | 58.76727 | 16.76904 | 33303 ft | 449 kts | 218° |
| 2026-05-08 14:00 | 58.74289 | 16.73051 | 33812 ft | 448 kts | 217° |
| 2026-05-08 14:01 | 58.71857 | 16.69213 | 34299 ft | 447 kts | 218° |
| 2026-05-08 14:01 | 58.69412 | 16.65362 | 34744 ft | 447 kts | 217° |
| 2026-05-08 14:01 | 58.66980 | 16.61539 | 35120 ft | 446 kts | 218° |
| 2026-05-08 14:01 | 58.64545 | 16.57718 | 35458 ft | 445 kts | 218° |
| 2026-05-08 14:02 | 58.62147 | 16.53961 | 35728 ft | 443 kts | 218° |
| 2026-05-08 14:02 | 58.59737 | 16.50195 | 35970 ft | 442 kts | 218° |
| 2026-05-08 14:02 | 58.57367 | 16.46496 | 36229 ft | 442 kts | 218° |
| 2026-05-08 14:02 | 58.54960 | 16.42748 | 36509 ft | 441 kts | 218° |
| 2026-05-08 14:03 | 58.52551 | 16.39002 | 36872 ft | 439 kts | 218° |
| 2026-05-08 14:03 | 58.50177 | 16.35319 | 37214 ft | 438 kts | 219° |
| 2026-05-08 14:03 | 58.47794 | 16.31627 | 37555 ft | 437 kts | 218° |
| 2026-05-08 14:03 | 58.45413 | 16.27945 | 37878 ft | 435 kts | 218° |
| 2026-05-08 14:04 | 58.43041 | 16.24284 | 38174 ft | 434 kts | 218° |
| 2026-05-08 14:04 | 58.40686 | 16.20656 | 38426 ft | 434 kts | 218° |
| 2026-05-08 14:04 | 58.38342 | 16.17051 | 38687 ft | 434 kts | 218° |
| 2026-05-08 14:04 | 58.35982 | 16.13428 | 38916 ft | 434 kts | 218° |
| 2026-05-08 14:05 | 58.33622 | 16.09812 | 39124 ft | 434 kts | 218° |
| 2026-05-08 14:05 | 58.31272 | 16.06218 | 39350 ft | 433 kts | 218° |
| 2026-05-08 14:05 | 58.28928 | 16.02637 | 39552 ft | 433 kts | 218° |
| 2026-05-08 14:05 | 58.26568 | 15.99065 | 39729 ft | 433 kts | 218° |
| 2026-05-08 14:06 | 58.24171 | 15.95613 | 39893 ft | 434 kts | 217° |
| 2026-05-08 14:06 | 58.21762 | 15.92176 | 40081 ft | 433 kts | 217° |
| 2026-05-08 14:06 | 58.19356 | 15.88745 | 40268 ft | 433 kts | 217° |
| 2026-05-08 14:07 | 58.14525 | 15.81871 | 40306 ft | 439 kts | 217° |
| 2026-05-08 14:07 | 58.09610 | 15.74901 | 40310 ft | 445 kts | 217° |
| 2026-05-08 14:08 | 58.04642 | 15.67878 | 40301 ft | 447 kts | 217° |
| 2026-05-08 14:08 | 57.99658 | 15.60855 | 40297 ft | 447 kts | 217° |
| 2026-05-08 14:09 | 57.94675 | 15.53860 | 40286 ft | 446 kts | 217° |
| 2026-05-08 14:09 | 57.89714 | 15.46917 | 40291 ft | 446 kts | 217° |
| 2026-05-08 14:10 | 57.84738 | 15.39977 | 40272 ft | 446 kts | 217° |
| 2026-05-08 14:10 | 57.79770 | 15.33074 | 40270 ft | 446 kts | 216° |
| 2026-05-08 14:11 | 57.74802 | 15.26193 | 40271 ft | 446 kts | 216° |
| 2026-05-08 14:11 | 57.69815 | 15.19310 | 40266 ft | 446 kts | 216° |
| 2026-05-08 14:12 | 57.64822 | 15.12442 | 40257 ft | 446 kts | 216° |
| 2026-05-08 14:12 | 57.59829 | 15.05598 | 40262 ft | 447 kts | 216° |
| 2026-05-08 14:13 | 57.54793 | 14.98720 | 40258 ft | 447 kts | 216° |
| 2026-05-08 14:13 | 57.49801 | 14.91925 | 40263 ft | 447 kts | 216° |
| 2026-05-08 14:14 | 57.44801 | 14.85144 | 40256 ft | 446 kts | 216° |
| 2026-05-08 14:14 | 57.39789 | 14.78369 | 40254 ft | 447 kts | 216° |
| 2026-05-08 14:15 | 57.34777 | 14.71617 | 40253 ft | 448 kts | 216° |
| 2026-05-08 14:15 | 57.29737 | 14.64850 | 40254 ft | 448 kts | 216° |
| 2026-05-08 14:16 | 57.24689 | 14.58097 | 40251 ft | 448 kts | 217° |
| 2026-05-08 14:16 | 57.19652 | 14.51381 | 40250 ft | 448 kts | 216° |
| 2026-05-08 14:17 | 57.14600 | 14.44669 | 40247 ft | 448 kts | 216° |
| 2026-05-08 14:17 | 57.09534 | 14.37960 | 40240 ft | 448 kts | 216° |
| 2026-05-08 14:18 | 57.04446 | 14.31246 | 40245 ft | 448 kts | 216° |
| 2026-05-08 14:18 | 56.99384 | 14.24588 | 40240 ft | 448 kts | 216° |
| 2026-05-08 14:19 | 56.94326 | 14.17959 | 40240 ft | 449 kts | 216° |
| 2026-05-08 14:19 | 56.89250 | 14.11330 | 40231 ft | 449 kts | 216° |
| 2026-05-08 14:20 | 56.84169 | 14.04716 | 40229 ft | 450 kts | 216° |
| 2026-05-08 14:20 | 56.79090 | 13.98127 | 40227 ft | 450 kts | 216° |
| 2026-05-08 14:21 | 56.74003 | 13.91552 | 40223 ft | 450 kts | 216° |
| 2026-05-08 14:21 | 56.68923 | 13.85005 | 40234 ft | 449 kts | 216° |
| 2026-05-08 14:22 | 56.63825 | 13.78459 | 40231 ft | 450 kts | 216° |
| 2026-05-08 14:22 | 56.58711 | 13.71914 | 40234 ft | 450 kts | 216° |
| 2026-05-08 14:23 | 56.53598 | 13.65392 | 40239 ft | 450 kts | 216° |
| 2026-05-08 14:23 | 56.48490 | 13.58899 | 40241 ft | 450 kts | 216° |
| 2026-05-08 14:24 | 56.43362 | 13.52401 | 40242 ft | 450 kts | 216° |
| 2026-05-08 14:24 | 56.38212 | 13.45899 | 40240 ft | 450 kts | 216° |
| 2026-05-08 14:25 | 56.33094 | 13.39458 | 40243 ft | 450 kts | 216° |
| 2026-05-08 14:25 | 56.27965 | 13.33023 | 40247 ft | 450 kts | 215° |
| 2026-05-08 14:26 | 56.22804 | 13.26572 | 40247 ft | 450 kts | 215° |
| 2026-05-08 14:26 | 56.17678 | 13.20185 | 40249 ft | 450 kts | 215° |
| 2026-05-08 14:27 | 56.12522 | 13.13781 | 40247 ft | 450 kts | 215° |
| 2026-05-08 14:27 | 56.07361 | 13.07394 | 40246 ft | 450 kts | 215° |
| 2026-05-08 14:28 | 56.02184 | 13.01007 | 40245 ft | 450 kts | 215° |
| 2026-05-08 14:28 | 55.97044 | 12.94687 | 40241 ft | 450 kts | 215° |
| 2026-05-08 14:29 | 55.91897 | 12.88379 | 40245 ft | 451 kts | 215° |
| 2026-05-08 14:29 | 55.86731 | 12.82068 | 40239 ft | 451 kts | 215° |
| 2026-05-08 14:30 | 55.81575 | 12.75792 | 40238 ft | 450 kts | 215° |
| 2026-05-08 14:30 | 55.76418 | 12.69534 | 40243 ft | 450 kts | 215° |
| 2026-05-08 14:31 | 55.71268 | 12.63305 | 40249 ft | 450 kts | 215° |
| 2026-05-08 14:31 | 55.66105 | 12.57079 | 40250 ft | 450 kts | 215° |
| 2026-05-08 14:32 | 55.58363 | 12.47784 | 40252 ft | 451 kts | 215° |
| 2026-05-08 14:32 | 55.53166 | 12.41567 | 40251 ft | 451 kts | 215° |
| 2026-05-08 14:33 | 55.47970 | 12.35375 | 40251 ft | 450 kts | 215° |
| 2026-05-08 14:33 | 55.42779 | 12.29206 | 40242 ft | 451 kts | 214° |
| 2026-05-08 14:34 | 55.37596 | 12.23067 | 40240 ft | 451 kts | 214° |
| 2026-05-08 14:34 | 55.32384 | 12.16915 | 40235 ft | 452 kts | 214° |
| 2026-05-08 14:35 | 55.27125 | 12.10790 | 40234 ft | 451 kts | 212° |
| 2026-05-08 14:35 | 55.21535 | 12.05841 | 40236 ft | 452 kts | 207° |
| 2026-05-08 14:36 | 55.15874 | 12.01017 | 40235 ft | 452 kts | 207° |
| 2026-05-08 14:36 | 55.10241 | 11.96229 | 40233 ft | 452 kts | 207° |
| 2026-05-08 14:37 | 55.04603 | 11.91450 | 40243 ft | 452 kts | 207° |
| 2026-05-08 14:37 | 54.98959 | 11.86680 | 40254 ft | 452 kts | 207° |
| 2026-05-08 14:38 | 54.93319 | 11.81926 | 40248 ft | 452 kts | 207° |
| 2026-05-08 14:38 | 54.87664 | 11.77174 | 40240 ft | 452 kts | 207° |
| 2026-05-08 14:39 | 54.81993 | 11.72423 | 40238 ft | 452 kts | 207° |
| 2026-05-08 14:39 | 54.76345 | 11.67706 | 40237 ft | 452 kts | 207° |
| 2026-05-08 14:40 | 54.70707 | 11.63011 | 40228 ft | 452 kts | 207° |
| 2026-05-08 14:40 | 54.65064 | 11.58327 | 40234 ft | 452 kts | 207° |
| 2026-05-08 14:41 | 54.59393 | 11.53634 | 40227 ft | 452 kts | 207° |
| 2026-05-08 14:41 | 54.53741 | 11.48971 | 40227 ft | 452 kts | 207° |
| 2026-05-08 14:42 | 54.48097 | 11.44329 | 40223 ft | 452 kts | 207° |
| 2026-05-08 14:42 | 54.42445 | 11.39694 | 40209 ft | 452 kts | 207° |
| 2026-05-08 14:43 | 54.36795 | 11.35075 | 40201 ft | 452 kts | 207° |
| 2026-05-08 14:43 | 54.31123 | 11.30453 | 40198 ft | 452 kts | 206° |
| 2026-05-08 14:44 | 54.25450 | 11.25843 | 40193 ft | 452 kts | 206° |
| 2026-05-08 14:44 | 54.19791 | 11.21259 | 40191 ft | 452 kts | 207° |
| 2026-05-08 14:45 | 54.14129 | 11.16686 | 40186 ft | 452 kts | 206° |
| 2026-05-08 14:45 | 54.08464 | 11.12126 | 40178 ft | 452 kts | 206° |
| 2026-05-08 14:46 | 54.02795 | 11.07575 | 40183 ft | 452 kts | 206° |
| 2026-05-08 14:46 | 53.97129 | 11.03040 | 40178 ft | 452 kts | 206° |
| 2026-05-08 14:47 | 53.91442 | 10.98503 | 40178 ft | 453 kts | 206° |
| 2026-05-08 14:47 | 53.85749 | 10.93975 | 40193 ft | 452 kts | 207° |
| 2026-05-08 14:48 | 53.80066 | 10.89468 | 40191 ft | 452 kts | 207° |
| 2026-05-08 14:48 | 53.74391 | 10.84980 | 40178 ft | 452 kts | 207° |
| 2026-05-08 14:49 | 53.68710 | 10.80502 | 40180 ft | 452 kts | 207° |
| 2026-05-08 14:49 | 53.63028 | 10.76035 | 40175 ft | 452 kts | 206° |
| 2026-05-08 14:50 | 53.57336 | 10.71575 | 40164 ft | 452 kts | 206° |
| 2026-05-08 14:50 | 53.51638 | 10.67123 | 40163 ft | 452 kts | 207° |
| 2026-05-08 14:51 | 53.45957 | 10.62698 | 40163 ft | 452 kts | 207° |
| 2026-05-08 14:51 | 53.40270 | 10.58281 | 40152 ft | 452 kts | 207° |
| 2026-05-08 14:52 | 53.31737 | 10.51677 | 40150 ft | 452 kts | 207° |
| 2026-05-08 14:53 | 53.26031 | 10.47278 | 40141 ft | 452 kts | 207° |
| 2026-05-08 14:53 | 53.20343 | 10.42905 | 40145 ft | 451 kts | 207° |
| 2026-05-08 14:54 | 53.14655 | 10.38546 | 40144 ft | 452 kts | 207° |
| 2026-05-08 14:54 | 53.08963 | 10.34196 | 40142 ft | 451 kts | 206° |
| 2026-05-08 14:55 | 53.03252 | 10.29844 | 40137 ft | 452 kts | 206° |
| 2026-05-08 14:55 | 52.97554 | 10.25514 | 40145 ft | 451 kts | 206° |
| 2026-05-08 14:56 | 52.91854 | 10.21196 | 40149 ft | 452 kts | 206° |
| 2026-05-08 14:56 | 52.86143 | 10.16882 | 40147 ft | 452 kts | 206° |
| 2026-05-08 14:57 | 52.80425 | 10.12575 | 40140 ft | 452 kts | 206° |
| 2026-05-08 14:57 | 52.74690 | 10.08268 | 40140 ft | 452 kts | 206° |
| 2026-05-08 14:58 | 52.68976 | 10.03989 | 40138 ft | 451 kts | 206° |
| 2026-05-08 14:58 | 52.63283 | 9.99738 | 40142 ft | 451 kts | 206° |
| 2026-05-08 14:59 | 52.57587 | 9.95497 | 40141 ft | 451 kts | 206° |
| 2026-05-08 14:59 | 52.49025 | 9.89144 | 40140 ft | 451 kts | 206° |
| 2026-05-08 15:00 | 52.43322 | 9.84929 | 40140 ft | 451 kts | 206° |
| 2026-05-08 15:00 | 52.37617 | 9.80723 | 40141 ft | 450 kts | 206° |
| 2026-05-08 15:01 | 52.31919 | 9.76534 | 40138 ft | 450 kts | 206° |
| 2026-05-08 15:01 | 52.26191 | 9.72336 | 40134 ft | 450 kts | 206° |
| 2026-05-08 15:02 | 52.20441 | 9.68133 | 40129 ft | 451 kts | 206° |
| 2026-05-08 15:02 | 52.14721 | 9.63964 | 40122 ft | 451 kts | 206° |
| 2026-05-08 15:03 | 52.08986 | 9.59795 | 40124 ft | 451 kts | 206° |
| 2026-05-08 15:03 | 52.03256 | 9.55643 | 40121 ft | 451 kts | 206° |
| 2026-05-08 15:04 | 51.97555 | 9.51523 | 40126 ft | 450 kts | 206° |
| 2026-05-08 15:04 | 51.91857 | 9.47417 | 40130 ft | 449 kts | 206° |
| 2026-05-08 15:05 | 51.86155 | 9.43318 | 40127 ft | 449 kts | 206° |
| 2026-05-08 15:05 | 51.80463 | 9.39239 | 40125 ft | 448 kts | 206° |
| 2026-05-08 15:06 | 51.74773 | 9.35172 | 40119 ft | 448 kts | 206° |
| 2026-05-08 15:06 | 51.69051 | 9.31094 | 40125 ft | 448 kts | 205° |
| 2026-05-08 15:07 | 51.63306 | 9.27010 | 40126 ft | 448 kts | 206° |
| 2026-05-08 15:07 | 51.57591 | 9.22960 | 40124 ft | 449 kts | 205° |
| 2026-05-08 15:08 | 51.52826 | 9.19591 | 40115 ft | 449 kts | 205° |
| 2026-05-08 15:08 | 51.46176 | 9.14902 | 40110 ft | 449 kts | 205° |
| 2026-05-08 15:09 | 51.40466 | 9.10888 | 40107 ft | 449 kts | 205° |
| 2026-05-08 15:09 | 51.34754 | 9.06883 | 40095 ft | 450 kts | 205° |
| 2026-05-08 15:10 | 51.28839 | 9.03672 | 40092 ft | 452 kts | 194° |
| 2026-05-08 15:10 | 51.22693 | 9.01605 | 40092 ft | 453 kts | 194° |
| 2026-05-08 15:11 | 51.16513 | 8.99523 | 40091 ft | 453 kts | 194° |
| 2026-05-08 15:11 | 51.10281 | 8.97470 | 40081 ft | 454 kts | 193° |
| 2026-05-08 15:12 | 51.04106 | 8.95601 | 40079 ft | 453 kts | 194° |
| 2026-05-08 15:12 | 50.97937 | 8.93560 | 40072 ft | 452 kts | 194° |
| 2026-05-08 15:13 | 50.91776 | 8.91530 | 40073 ft | 452 kts | 194° |
| 2026-05-08 15:13 | 50.85633 | 8.89510 | 40069 ft | 452 kts | 194° |
| 2026-05-08 15:14 | 50.79483 | 8.87444 | 40069 ft | 452 kts | 195° |
| 2026-05-08 15:14 | 50.73352 | 8.85314 | 40070 ft | 452 kts | 195° |
| 2026-05-08 15:15 | 50.67209 | 8.83208 | 40066 ft | 453 kts | 193° |
| 2026-05-08 15:15 | 50.60915 | 8.82582 | 40067 ft | 458 kts | 178° |
| 2026-05-08 15:16 | 50.54590 | 8.83828 | 40066 ft | 459 kts | 175° |
| 2026-05-08 15:16 | 50.48243 | 8.85163 | 40062 ft | 459 kts | 175° |
| 2026-05-08 15:17 | 50.41913 | 8.86491 | 40063 ft | 458 kts | 175° |
| 2026-05-08 15:17 | 50.35590 | 8.87814 | 40062 ft | 459 kts | 175° |
| 2026-05-08 15:18 | 50.29230 | 8.89142 | 40060 ft | 459 kts | 175° |
| 2026-05-08 15:18 | 50.22853 | 8.90259 | 40060 ft | 457 kts | 181° |
| 2026-05-08 15:19 | 50.16578 | 8.89251 | 40060 ft | 452 kts | 196° |
| 2026-05-08 15:19 | 50.10679 | 8.86057 | 40061 ft | 449 kts | 202° |
| 2026-05-08 15:20 | 50.04812 | 8.82751 | 40062 ft | 449 kts | 201° |
| 2026-05-08 15:20 | 49.98891 | 8.79646 | 40062 ft | 450 kts | 200° |
| 2026-05-08 15:21 | 49.92894 | 8.76737 | 40064 ft | 450 kts | 199° |
| 2026-05-08 15:21 | 49.86840 | 8.74034 | 40050 ft | 451 kts | 198° |
| 2026-05-08 15:22 | 49.80758 | 8.71556 | 40054 ft | 452 kts | 197° |
| 2026-05-08 15:22 | 49.74621 | 8.69351 | 40045 ft | 453 kts | 194° |
| 2026-05-08 15:23 | 49.68362 | 8.68241 | 40058 ft | 454 kts | 188° |
| 2026-05-08 15:23 | 49.62059 | 8.67398 | 40050 ft | 454 kts | 188° |
| 2026-05-08 15:24 | 49.55752 | 8.66554 | 40056 ft | 453 kts | 188° |
| 2026-05-08 15:24 | 49.49434 | 8.65711 | 40053 ft | 454 kts | 188° |
| 2026-05-08 15:25 | 49.43150 | 8.64875 | 40046 ft | 454 kts | 188° |
| 2026-05-08 15:25 | 49.36845 | 8.64038 | 40046 ft | 454 kts | 188° |
| 2026-05-08 15:26 | 49.30554 | 8.63164 | 40039 ft | 453 kts | 188° |
| 2026-05-08 15:26 | 49.24265 | 8.62185 | 40034 ft | 453 kts | 189° |
| 2026-05-08 15:27 | 49.18019 | 8.61217 | 40031 ft | 452 kts | 189° |
| 2026-05-08 15:27 | 49.11763 | 8.60262 | 40024 ft | 452 kts | 188° |
| 2026-05-08 15:28 | 49.05508 | 8.59323 | 40018 ft | 452 kts | 188° |
| 2026-05-08 15:28 | 48.99210 | 8.58340 | 40024 ft | 452 kts | 191° |
| 2026-05-08 15:29 | 48.93073 | 8.56426 | 40024 ft | 451 kts | 195° |
| 2026-05-08 15:29 | 48.86921 | 8.54416 | 39922 ft | 453 kts | 195° |
| 2026-05-08 15:30 | 48.83833 | 8.53411 | 39478 ft | 452 kts | 195° |
| 2026-05-08 15:30 | 48.80926 | 8.52468 | 39035 ft | 447 kts | 195° |
| 2026-05-08 15:30 | 48.77909 | 8.51491 | 38566 ft | 443 kts | 195° |
| 2026-05-08 15:30 | 48.74903 | 8.50519 | 38093 ft | 442 kts | 195° |
| 2026-05-08 15:31 | 48.71869 | 8.49539 | 37590 ft | 441 kts | 195° |
| 2026-05-08 15:31 | 48.68883 | 8.48576 | 37100 ft | 439 kts | 195° |
| 2026-05-08 15:31 | 48.65910 | 8.47619 | 36615 ft | 438 kts | 195° |
| 2026-05-08 15:31 | 48.62935 | 8.46662 | 36134 ft | 438 kts | 195° |
| 2026-05-08 15:32 | 48.59956 | 8.45710 | 35644 ft | 438 kts | 195° |
| 2026-05-08 15:32 | 48.56992 | 8.44764 | 35159 ft | 438 kts | 195° |
| 2026-05-08 15:32 | 48.54016 | 8.43817 | 34669 ft | 438 kts | 195° |
| 2026-05-08 15:32 | 48.51045 | 8.42871 | 34202 ft | 438 kts | 195° |
| 2026-05-08 15:33 | 48.48069 | 8.41926 | 33707 ft | 438 kts | 195° |
| 2026-05-08 15:33 | 48.45093 | 8.40981 | 33188 ft | 437 kts | 195° |
| 2026-05-08 15:33 | 48.42136 | 8.40042 | 32736 ft | 436 kts | 194° |
| 2026-05-08 15:33 | 48.39176 | 8.39103 | 32254 ft | 435 kts | 194° |
| 2026-05-08 15:34 | 48.36219 | 8.38166 | 31772 ft | 435 kts | 194° |
| 2026-05-08 15:34 | 48.33273 | 8.37234 | 31291 ft | 434 kts | 194° |
| 2026-05-08 15:34 | 48.30321 | 8.36301 | 30792 ft | 434 kts | 194° |
| 2026-05-08 15:34 | 48.27376 | 8.35371 | 30322 ft | 433 kts | 194° |
| 2026-05-08 15:35 | 48.24412 | 8.34437 | 29836 ft | 435 kts | 194° |
| 2026-05-08 15:35 | 48.21449 | 8.33504 | 29358 ft | 436 kts | 194° |
| 2026-05-08 15:35 | 48.18483 | 8.32619 | 28878 ft | 436 kts | 190° |
| 2026-05-08 15:35 | 48.15461 | 8.32521 | 28407 ft | 438 kts | 176° |
| 2026-05-08 15:36 | 48.12460 | 8.33205 | 27903 ft | 436 kts | 173° |
| 2026-05-08 15:36 | 48.09483 | 8.33937 | 27427 ft | 434 kts | 173° |
| 2026-05-08 15:36 | 48.06518 | 8.34659 | 26949 ft | 432 kts | 173° |
| 2026-05-08 15:36 | 48.03565 | 8.35376 | 26471 ft | 430 kts | 173° |
| 2026-05-08 15:37 | 48.00630 | 8.36088 | 26002 ft | 427 kts | 173° |
| 2026-05-08 15:37 | 47.97714 | 8.36794 | 25527 ft | 425 kts | 173° |
| 2026-05-08 15:37 | 47.94813 | 8.37497 | 25053 ft | 422 kts | 173° |
| 2026-05-08 15:37 | 47.91928 | 8.38194 | 24596 ft | 420 kts | 173° |
| 2026-05-08 15:38 | 47.89055 | 8.38887 | 24137 ft | 418 kts | 173° |
| 2026-05-08 15:38 | 47.86185 | 8.39579 | 23669 ft | 416 kts | 173° |
| 2026-05-08 15:38 | 47.83341 | 8.40262 | 23219 ft | 413 kts | 173° |
| 2026-05-08 15:38 | 47.80519 | 8.40938 | 22758 ft | 411 kts | 173° |
| 2026-05-08 15:39 | 47.77716 | 8.41608 | 22307 ft | 407 kts | 173° |
| 2026-05-08 15:39 | 47.74930 | 8.42274 | 21857 ft | 405 kts | 173° |
| 2026-05-08 15:39 | 47.72157 | 8.42669 | 21417 ft | 399 kts | 183° |
| 2026-05-08 15:39 | 47.69445 | 8.42046 | 20924 ft | 393 kts | 198° |
| 2026-05-08 15:40 | 47.66993 | 8.40385 | 20456 ft | 387 kts | 213° |
| 2026-05-08 15:40 | 47.64920 | 8.37897 | 19949 ft | 383 kts | 224° |
| 2026-05-08 15:40 | 47.63026 | 8.35152 | 19566 ft | 380 kts | 225° |
| 2026-05-08 15:40 | 47.61135 | 8.32427 | 19135 ft | 380 kts | 225° |
| 2026-05-08 15:41 | 47.59251 | 8.29715 | 18717 ft | 378 kts | 224° |
| 2026-05-08 15:41 | 47.57376 | 8.27021 | 18305 ft | 376 kts | 225° |
| 2026-05-08 15:41 | 47.55510 | 8.24342 | 17888 ft | 373 kts | 224° |
| 2026-05-08 15:41 | 47.53657 | 8.21685 | 17479 ft | 371 kts | 224° |
| 2026-05-08 15:42 | 47.51811 | 8.19043 | 17060 ft | 369 kts | 224° |
| 2026-05-08 15:42 | 47.49980 | 8.16423 | 16653 ft | 366 kts | 224° |
| 2026-05-08 15:42 | 47.48155 | 8.13815 | 16249 ft | 365 kts | 224° |
| 2026-05-08 15:42 | 47.46334 | 8.11215 | 15849 ft | 363 kts | 224° |
| 2026-05-08 15:43 | 47.44521 | 8.08630 | 15445 ft | 362 kts | 224° |
| 2026-05-08 15:43 | 47.42722 | 8.06069 | 15046 ft | 359 kts | 224° |
| 2026-05-08 15:43 | 47.40926 | 8.03512 | 14650 ft | 358 kts | 224° |
| 2026-05-08 15:43 | 47.39139 | 8.00973 | 14261 ft | 356 kts | 224° |
| 2026-05-08 15:44 | 47.37356 | 7.98440 | 13865 ft | 355 kts | 224° |
| 2026-05-08 15:44 | 47.35585 | 7.95929 | 13479 ft | 353 kts | 224° |
| 2026-05-08 15:44 | 47.33831 | 7.93444 | 13088 ft | 347 kts | 224° |
| 2026-05-08 15:44 | 47.32113 | 7.91011 | 12708 ft | 339 kts | 224° |
| 2026-05-08 15:45 | 47.30430 | 7.88630 | 12343 ft | 332 kts | 223° |
| 2026-05-08 15:45 | 47.28789 | 7.86310 | 11978 ft | 324 kts | 224° |
| 2026-05-08 15:45 | 47.27183 | 7.84044 | 11627 ft | 316 kts | 223° |
| 2026-05-08 15:45 | 47.25614 | 7.81831 | 11275 ft | 308 kts | 223° |
| 2026-05-08 15:46 | 47.24086 | 7.79676 | 10952 ft | 301 kts | 223° |
| 2026-05-08 15:46 | 47.22591 | 7.77571 | 10618 ft | 295 kts | 223° |
| 2026-05-08 15:46 | 47.21124 | 7.75507 | 10287 ft | 287 kts | 223° |
| 2026-05-08 15:46 | 47.19699 | 7.73503 | 9993 ft | 282 kts | 223° |
| 2026-05-08 15:47 | 47.18457 | 7.71281 | 9684 ft | 284 kts | 237° |
| 2026-05-08 15:47 | 47.17456 | 7.68777 | 9363 ft | 284 kts | 239° |
| 2026-05-08 15:47 | 47.16460 | 7.66282 | 9057 ft | 284 kts | 239° |
| 2026-05-08 15:47 | 47.15465 | 7.63797 | 8793 ft | 283 kts | 239° |
| 2026-05-08 15:48 | 47.13467 | 7.58822 | 8163 ft | 282 kts | 239° |
| 2026-05-08 15:48 | 47.12524 | 7.56309 | 7853 ft | 281 kts | 248° |
| 2026-05-08 15:48 | 47.12018 | 7.53580 | 7539 ft | 274 kts | 258° |
| 2026-05-08 15:49 | 47.11606 | 7.50891 | 7248 ft | 267 kts | 258° |
| 2026-05-08 15:49 | 47.11196 | 7.48264 | 6956 ft | 261 kts | 258° |
| 2026-05-08 15:49 | 47.10794 | 7.45695 | 6665 ft | 256 kts | 258° |
| 2026-05-08 15:49 | 47.10399 | 7.43178 | 6387 ft | 251 kts | 258° |
| 2026-05-08 15:50 | 47.10010 | 7.40713 | 6112 ft | 245 kts | 258° |
| 2026-05-08 15:50 | 47.09630 | 7.38351 | 5841 ft | 232 kts | 256° |
| 2026-05-08 15:50 | 47.08911 | 7.36257 | 5575 ft | 233 kts | 232° |
| 2026-05-08 15:50 | 47.07651 | 7.34819 | 5304 ft | 226 kts | 208° |
| 2026-05-08 15:51 | 47.06251 | 7.34001 | 5041 ft | 212 kts | 191° |
| 2026-05-08 15:51 | 47.04815 | 7.34056 | 4782 ft | 201 kts | 165° |
| 2026-05-08 15:51 | 47.03571 | 7.34886 | 4538 ft | 196 kts | 145° |
| 2026-05-08 15:51 | 47.02491 | 7.36098 | 4293 ft | 195 kts | 139° |
| 2026-05-08 15:52 | 47.01484 | 7.37360 | 4079 ft | 183 kts | 138° |
| 2026-05-08 15:52 | 47.00555 | 7.38528 | 4065 ft | 175 kts | 137° |
| 2026-05-08 15:52 | 46.99625 | 7.39683 | 4047 ft | 174 kts | 138° |
| 2026-05-08 15:52 | 46.98690 | 7.40829 | 3922 ft | 176 kts | 138° |
| 2026-05-08 15:53 | 46.97770 | 7.41952 | 3609 ft | 170 kts | 138° |
| 2026-05-08 15:53 | 46.96895 | 7.43017 | 3385 ft | 153 kts | 139° |
| 2026-05-08 15:53 | 46.96110 | 7.43974 | 3138 ft | 143 kts | 138° |
| 2026-05-08 15:53 | 46.95362 | 7.44889 | 2876 ft | 138 kts | 138° |
| 2026-05-08 15:54 | 46.94636 | 7.45771 | 2623 ft | 133 kts | 138° |
| 2026-05-08 15:54 | 46.93923 | 7.46660 | 2395 ft | 135 kts | 137° |
| 2026-05-08 15:54 | 46.93211 | 7.47541 | 2183 ft | 135 kts | 138° |
| 2026-05-08 15:54 | 46.92488 | 7.48409 | 1951 ft | 133 kts | 140° |
| 2026-05-08 15:55 | 46.91781 | 7.49267 | 1717 ft | 130 kts | 137° |
| 2026-05-08 15:55 | 46.90922 | 7.50315 | 1691 ft | 12 kts | 140° |
| 2026-05-08 15:55 | 46.90917 | 7.50378 | 1691 ft | 8 kts | 44° |
| 2026-05-08 15:56 | 46.90954 | 7.50414 | 1691 ft | 5 kts | 356° |
| 2026-05-08 15:56 | 46.90995 | 7.50368 | 1691 ft | 9 kts | 318° |
| 2026-05-08 15:56 | 46.91059 | 7.50300 | 1690 ft | 10 kts | 322° |
| 2026-05-08 15:56 | 46.91114 | 7.50230 | 1690 ft | 12 kts | 315° |
| 2026-05-08 15:57 | 46.91187 | 7.50136 | 1690 ft | 12 kts | 320° |
| 2026-05-08 15:57 | 46.91250 | 7.50060 | 1689 ft | 9 kts | 319° |
| 2026-05-08 15:57 | 46.91289 | 7.50030 | 1689 ft | 6 kts | 39° |
| 2026-05-08 15:57 | 46.91307 | 7.50084 | 1689 ft | 3 kts | 72° |
| 2026-05-08 15:58 | 46.91308 | 7.50098 | 1689 ft | 0 kts | 89° |